createdAt,value
2023-03-10T00:01:30.864Z,2.90
2023-03-10T00:04:01.434Z,3.30
2023-03-10T00:06:34.193Z,2.90
2023-03-10T00:09:02.055Z,3.20
2023-03-10T00:11:29.495Z,3.90
2023-03-10T00:13:57.156Z,3.40
2023-03-10T00:16:28.630Z,4.80
2023-03-10T00:18:56.365Z,4.60
2023-03-10T00:21:27.408Z,4.00
2023-03-10T00:23:55.011Z,3.00
2023-03-10T00:26:26.032Z,2.60
2023-03-10T00:28:54.381Z,3.90
2023-03-10T00:31:26.012Z,4.00
2023-03-10T00:33:56.004Z,3.60
2023-03-10T00:36:27.590Z,4.30
2023-03-10T00:38:56.708Z,3.30
2023-03-10T00:41:28.521Z,2.70
2023-03-10T00:43:55.883Z,3.30
2023-03-10T00:46:25.847Z,3.70
2023-03-10T00:48:53.713Z,2.70
2023-03-10T00:51:22.423Z,2.90
2023-03-10T00:53:50.347Z,3.60
2023-03-10T00:56:26.233Z,3.70
2023-03-10T00:58:57.667Z,3.60
2023-03-10T01:01:38.041Z,3.50
2023-03-10T01:04:13.814Z,4.40
2023-03-10T01:06:41.600Z,3.10
2023-03-10T01:09:08.989Z,4.10
2023-03-10T01:11:36.948Z,3.00
2023-03-10T01:14:07.616Z,2.90
2023-03-10T01:16:35.232Z,2.30
2023-03-10T01:19:02.753Z,2.00
2023-03-10T01:21:34.892Z,2.00
2023-03-10T01:24:03.360Z,2.50
2023-03-10T01:26:31.428Z,2.70
2023-03-10T01:28:59.620Z,2.30
2023-03-10T01:31:27.230Z,2.60
2023-03-10T01:33:55.126Z,2.40
2023-03-10T01:36:26.758Z,2.40
2023-03-10T01:38:56.590Z,1.80
2023-03-10T01:41:25.055Z,2.00
2023-03-10T01:43:55.762Z,2.40
2023-03-10T01:46:32.093Z,1.90
2023-03-10T01:49:16.239Z,2.60
2023-03-10T01:51:49.167Z,1.80
2023-03-10T01:54:24.997Z,2.00
2023-03-10T01:56:54.014Z,1.80
2023-03-10T01:59:22.348Z,2.40
2023-03-10T02:01:52.434Z,2.20
2023-03-10T02:04:34.766Z,2.00
2023-03-10T02:07:05.730Z,2.60
2023-03-10T02:09:38.081Z,1.80
2023-03-10T02:12:06.543Z,2.20
2023-03-10T02:14:35.847Z,3.40
2023-03-10T02:17:07.838Z,2.60
2023-03-10T02:19:55.288Z,2.10
2023-03-10T02:22:22.963Z,3.30
2023-03-10T02:24:56.316Z,2.40
2023-03-10T02:27:28.036Z,2.60
2023-03-10T02:30:43.517Z,2.70
2023-03-10T02:33:25.993Z,3.00
2023-03-10T02:35:53.953Z,2.50
2023-03-10T02:38:21.705Z,2.70
2023-03-10T02:40:52.002Z,2.90
2023-03-10T02:43:26.303Z,2.80
2023-03-10T02:45:58.858Z,3.10
2023-03-10T02:48:36.579Z,2.60
2023-03-10T02:51:10.166Z,2.50
2023-03-10T02:53:37.528Z,2.50
2023-03-10T02:56:05.508Z,2.40
2023-03-10T02:58:33.396Z,2.30
2023-03-10T03:01:01.195Z,2.20
2023-03-10T03:03:28.577Z,1.90
2023-03-10T03:05:56.058Z,1.90
2023-03-10T03:08:24.054Z,1.70
2023-03-10T03:10:52.762Z,1.60
2023-03-10T03:13:20.387Z,1.90
2023-03-10T03:15:48.756Z,1.70
2023-03-10T03:18:16.109Z,1.30
2023-03-10T03:20:43.920Z,1.80
2023-03-10T03:23:11.436Z,1.40
2023-03-10T03:25:41.053Z,1.60
2023-03-10T03:28:10.907Z,2.20
2023-03-10T03:30:38.350Z,1.90
2023-03-10T03:33:07.241Z,1.70
2023-03-10T03:35:37.620Z,1.90
2023-03-10T03:38:06.442Z,1.50
2023-03-10T03:40:36.005Z,1.90
2023-03-10T03:43:04.278Z,2.90
2023-03-10T03:45:32.517Z,2.00
2023-03-10T03:48:00.381Z,2.20
2023-03-10T03:50:28.350Z,2.50
2023-03-10T03:52:55.746Z,2.90
2023-03-10T03:55:23.198Z,3.40
2023-03-10T03:57:50.787Z,2.60
2023-03-10T04:00:22.701Z,3.40
2023-03-10T04:02:50.533Z,2.50
2023-03-10T04:05:18.484Z,3.10
2023-03-10T04:07:48.191Z,4.10
2023-03-10T04:10:19.145Z,2.40
2023-03-10T04:12:46.600Z,2.50
2023-03-10T04:15:14.498Z,2.80
2023-03-10T04:17:42.139Z,4.60
2023-03-10T04:20:11.742Z,3.10
2023-03-10T04:22:39.355Z,3.50
2023-03-10T04:25:08.048Z,2.80
2023-03-10T04:27:36.060Z,3.30
2023-03-10T04:30:05.233Z,3.60
2023-03-10T04:32:33.156Z,3.10
2023-03-10T04:35:01.634Z,2.90
2023-03-10T04:37:29.108Z,4.20
2023-03-10T04:39:57.277Z,2.70
2023-03-10T04:42:26.777Z,3.20
2023-03-10T04:44:54.201Z,2.80
2023-03-10T04:47:21.673Z,2.10
2023-03-10T04:49:49.092Z,2.70
2023-03-10T04:52:16.955Z,1.90
2023-03-10T04:54:44.364Z,2.90
2023-03-10T04:57:11.786Z,2.00
2023-03-10T04:59:39.234Z,3.20
2023-03-10T05:02:06.693Z,1.80
2023-03-10T05:04:34.103Z,1.60
2023-03-10T05:07:01.624Z,2.30
2023-03-10T05:09:28.943Z,1.60
2023-03-10T05:11:56.349Z,1.90
2023-03-10T05:14:23.759Z,2.50
2023-03-10T05:16:51.222Z,1.60
2023-03-10T05:19:19.061Z,1.50
2023-03-10T05:21:46.549Z,1.20
2023-03-10T05:24:14.201Z,1.30
2023-03-10T05:26:42.075Z,1.20
2023-03-10T05:29:09.402Z,0.90
2023-03-10T05:31:36.934Z,1.10
2023-03-10T05:34:05.067Z,1.10
2023-03-10T05:36:32.471Z,1.00
2023-03-10T05:39:00.571Z,1.90
2023-03-10T05:41:28.075Z,0.90
2023-03-10T05:43:55.907Z,1.00
2023-03-10T05:46:23.765Z,0.90
2023-03-10T05:48:51.275Z,0.80
2023-03-10T05:51:19.028Z,1.40
2023-03-10T05:53:46.978Z,1.00
2023-03-10T05:56:18.875Z,1.00
2023-03-10T05:58:47.413Z,1.10
2023-03-10T06:01:15.010Z,1.30
2023-03-10T06:03:44.540Z,1.30
2023-03-10T06:06:12.661Z,1.00
2023-03-10T06:08:40.442Z,1.50
2023-03-10T06:11:07.901Z,0.90
2023-03-10T06:13:35.665Z,0.90
2023-03-10T06:16:06.615Z,0.70
2023-03-10T06:18:35.061Z,1.00
2023-03-10T06:21:15.142Z,1.20
2023-03-10T06:23:42.578Z,0.70
2023-03-10T06:26:15.929Z,1.20
2023-03-10T06:28:46.382Z,1.00
2023-03-10T06:31:19.436Z,1.40
2023-03-10T06:33:47.485Z,0.70
2023-03-10T06:36:16.610Z,0.90
2023-03-10T06:38:44.490Z,0.90
2023-03-10T06:41:12.560Z,1.30
2023-03-10T06:43:40.459Z,0.90
2023-03-10T06:46:10.083Z,0.90
2023-03-10T06:48:39.413Z,1.10
2023-03-10T06:51:10.022Z,0.70
2023-03-10T06:53:37.658Z,1.00
2023-03-10T06:56:10.876Z,1.90
2023-03-10T06:58:38.721Z,0.70
2023-03-10T07:01:08.187Z,0.60
2023-03-10T07:03:36.576Z,0.80
2023-03-10T07:06:05.030Z,0.90
2023-03-10T07:08:32.377Z,0.50
2023-03-10T07:10:59.813Z,0.70
2023-03-10T07:13:27.369Z,0.70
2023-03-10T07:15:54.779Z,0.80
2023-03-10T07:18:22.489Z,0.60
2023-03-10T07:20:51.008Z,0.70
2023-03-10T07:23:18.501Z,0.60
2023-03-10T07:25:46.226Z,0.70
2023-03-10T07:28:13.724Z,0.70
2023-03-10T07:30:41.212Z,0.70
2023-03-10T07:33:08.802Z,0.60
2023-03-10T07:35:37.340Z,0.70
2023-03-10T07:38:05.165Z,0.60
2023-03-10T07:40:32.827Z,0.70
2023-03-10T07:43:00.495Z,0.60
2023-03-10T07:45:28.376Z,1.30
2023-03-10T07:47:55.771Z,0.80
2023-03-10T07:50:23.219Z,0.60
2023-03-10T07:52:50.822Z,0.50
2023-03-10T07:55:18.845Z,0.60
2023-03-10T07:57:46.339Z,0.60
2023-03-10T08:00:15.513Z,0.70
2023-03-10T08:02:43.168Z,0.50
2023-03-10T08:05:11.536Z,0.60
2023-03-10T08:07:39.166Z,0.60
2023-03-10T08:10:07.857Z,0.80
2023-03-10T08:12:35.708Z,0.80
2023-03-10T08:15:04.847Z,2.10
2023-03-10T08:17:33.508Z,0.70
2023-03-10T08:20:01.261Z,0.60
2023-03-10T08:22:28.899Z,0.70
2023-03-10T08:24:56.387Z,0.60
2023-03-10T08:27:23.839Z,1.00
2023-03-10T08:29:51.765Z,0.70
2023-03-10T08:32:20.169Z,0.80
2023-03-10T08:34:47.728Z,0.70
2023-03-10T08:37:15.176Z,0.90
2023-03-10T08:39:42.525Z,0.80
2023-03-10T08:42:14.091Z,0.80
2023-03-10T08:44:42.056Z,0.80
2023-03-10T08:47:09.803Z,0.60
2023-03-10T08:49:37.431Z,0.80
2023-03-10T08:52:05.248Z,0.80
2023-03-10T08:54:32.856Z,0.80
2023-03-10T08:57:01.186Z,1.00
2023-03-10T08:59:28.845Z,1.00
2023-03-10T09:01:56.265Z,1.00
2023-03-10T09:04:23.751Z,1.20
2023-03-10T09:06:51.399Z,1.00
2023-03-10T09:09:19.106Z,1.10
2023-03-10T09:11:46.644Z,1.20
2023-03-10T09:14:17.027Z,0.90
2023-03-10T09:16:45.054Z,0.90
2023-03-10T09:19:12.496Z,1.10
2023-03-10T09:21:41.511Z,1.00
2023-03-10T09:24:09.367Z,0.90
2023-03-10T09:26:36.817Z,0.90
2023-03-10T09:29:04.918Z,1.00
2023-03-10T09:31:36.085Z,0.80
2023-03-10T09:34:04.590Z,0.80
2023-03-10T09:36:32.900Z,1.00
2023-03-10T09:39:01.091Z,1.10
2023-03-10T09:41:46.696Z,1.00
2023-03-10T09:44:52.715Z,0.90
2023-03-10T09:48:21.626Z,1.10
2023-03-10T09:50:56.726Z,1.50
2023-03-10T09:53:40.930Z,0.90
2023-03-10T09:56:17.710Z,1.20
2023-03-10T09:58:54.527Z,1.40
2023-03-10T10:01:27.723Z,1.20
2023-03-10T10:04:01.282Z,1.30
2023-03-10T10:06:34.911Z,1.00
2023-03-10T10:09:29.283Z,0.90
2023-03-10T10:11:56.703Z,1.20
2023-03-10T10:14:31.062Z,1.30
2023-03-10T10:17:32.512Z,1.30
2023-03-10T10:20:06.504Z,1.00
2023-03-10T10:22:38.078Z,1.50
2023-03-10T10:25:08.660Z,1.60
2023-03-10T10:27:37.732Z,1.40
2023-03-10T10:30:37.442Z,1.40
2023-03-10T10:33:11.371Z,1.30
2023-03-10T10:35:43.209Z,1.30
2023-03-10T10:38:10.629Z,1.50
2023-03-10T10:41:09.988Z,1.70
2023-03-10T10:43:45.156Z,1.50
2023-03-10T10:46:16.155Z,1.80
2023-03-10T10:48:49.183Z,1.30
2023-03-10T10:51:29.292Z,1.70
2023-03-10T10:54:04.473Z,1.40
2023-03-10T10:56:32.460Z,1.60
2023-03-10T10:59:11.602Z,1.30
2023-03-10T11:02:04.439Z,1.90
2023-03-10T11:04:46.667Z,1.80
2023-03-10T11:07:24.766Z,1.50
2023-03-10T11:09:52.377Z,1.70
2023-03-10T11:12:25.117Z,1.40
2023-03-10T11:15:30.104Z,1.60
2023-03-10T11:18:25.419Z,1.60
2023-03-10T11:21:14.705Z,1.50
2023-03-10T11:24:01.818Z,1.90
2023-03-10T11:27:00.797Z,2.90
2023-03-10T11:30:05.060Z,2.20
2023-03-10T11:32:49.814Z,1.40
2023-03-10T11:35:31.429Z,1.70
2023-03-10T11:38:37.681Z,1.90
2023-03-10T11:41:20.557Z,2.10
2023-03-10T11:43:58.372Z,2.70
2023-03-10T11:46:44.611Z,3.20
2023-03-10T11:49:15.400Z,1.80
2023-03-10T11:51:47.538Z,2.60
2023-03-10T11:54:27.189Z,2.10
2023-03-10T11:56:56.396Z,1.70
2023-03-10T11:59:29.522Z,2.30
2023-03-10T12:02:24.629Z,1.90
2023-03-10T12:05:08.614Z,1.80
2023-03-10T12:07:43.461Z,1.70
2023-03-10T12:10:13.817Z,1.40
2023-03-10T12:12:45.303Z,1.70
2023-03-10T12:15:24.207Z,1.90
2023-03-10T12:17:53.965Z,2.00
2023-03-10T12:20:21.382Z,1.40
2023-03-10T12:22:53.196Z,1.70
2023-03-10T12:25:30.032Z,1.40
2023-03-10T12:28:16.379Z,2.00
2023-03-10T12:31:07.443Z,2.00
2023-03-10T12:33:38.151Z,1.60
2023-03-10T12:36:32.822Z,1.90
2023-03-10T12:39:25.131Z,1.50
2023-03-10T12:41:55.489Z,1.80
2023-03-10T12:44:32.784Z,2.90
2023-03-10T12:47:09.327Z,2.00
2023-03-10T12:49:58.515Z,1.80
2023-03-10T12:52:57.584Z,2.10
2023-03-10T12:55:27.924Z,1.20
2023-03-10T12:58:21.791Z,1.20
2023-03-10T13:01:07.248Z,1.10
2023-03-10T13:03:43.365Z,1.40
2023-03-10T13:06:11.073Z,0.90
2023-03-10T13:08:45.196Z,1.10
2023-03-10T13:11:35.894Z,1.40
2023-03-10T13:14:13.920Z,1.00
2023-03-10T13:16:46.377Z,0.80
2023-03-10T13:19:22.005Z,1.50
2023-03-10T13:21:51.076Z,0.90
2023-03-10T13:24:23.774Z,0.90
2023-03-10T13:27:15.912Z,0.90
2023-03-10T13:29:59.505Z,1.40
2023-03-10T13:32:27.200Z,1.00
2023-03-10T13:34:56.563Z,1.30
2023-03-10T13:37:25.040Z,1.20
2023-03-10T13:39:52.690Z,1.20
2023-03-10T13:42:28.375Z,1.00
2023-03-10T13:45:23.256Z,1.10
2023-03-10T13:47:52.756Z,1.50
2023-03-10T13:50:20.816Z,1.10
2023-03-10T13:52:54.746Z,1.10
2023-03-10T13:55:22.244Z,1.20
2023-03-10T13:57:50.958Z,1.10
2023-03-10T14:00:21.771Z,1.20
2023-03-10T14:02:51.405Z,1.00
2023-03-10T14:05:41.224Z,1.70
2023-03-10T14:08:28.343Z,1.10
2023-03-10T14:11:32.238Z,1.00
2023-03-10T14:14:01.570Z,1.00
2023-03-10T14:16:52.038Z,0.80
2023-03-10T14:19:41.393Z,1.00
2023-03-10T14:22:36.927Z,0.90
2023-03-10T14:25:24.442Z,1.00
2023-03-10T14:30:44.155Z,0.80
2023-03-10T14:33:15.319Z,0.80
2023-03-10T14:35:44.061Z,0.90
2023-03-10T14:38:11.844Z,0.90
2023-03-10T14:40:43.140Z,0.80
2023-03-10T14:43:17.211Z,1.00
2023-03-10T14:45:46.644Z,1.10
2023-03-10T14:48:20.816Z,1.40
2023-03-10T14:50:48.927Z,1.30
2023-03-10T14:53:21.249Z,1.20
2023-03-10T14:55:52.258Z,1.10
2023-03-10T14:58:30.911Z,1.00
2023-03-10T15:00:59.477Z,1.20
2023-03-10T15:03:27.973Z,1.30
2023-03-10T15:05:55.382Z,1.00
2023-03-10T15:08:22.829Z,1.10
2023-03-10T15:10:52.044Z,0.80
2023-03-10T15:13:23.191Z,0.90
2023-03-10T15:15:50.948Z,1.10
2023-03-10T15:18:22.191Z,1.10
2023-03-10T15:20:49.831Z,1.00
2023-03-10T15:23:20.002Z,1.30
2023-03-10T15:25:48.498Z,1.30
2023-03-10T15:28:16.105Z,1.10
2023-03-10T15:30:44.162Z,1.00
2023-03-10T15:33:11.899Z,1.30
2023-03-10T15:35:40.351Z,1.10
2023-03-10T15:38:08.258Z,1.20
2023-03-10T15:40:36.186Z,1.30
2023-03-10T15:43:03.650Z,1.30
2023-03-10T15:45:32.418Z,1.20
2023-03-10T15:48:00.000Z,1.20
2023-03-10T15:50:27.938Z,1.00
2023-03-10T15:52:58.383Z,1.10
2023-03-10T15:55:28.552Z,1.50
2023-03-10T15:57:56.718Z,1.10
2023-03-10T16:00:26.004Z,1.40
2023-03-10T16:02:53.809Z,1.30
2023-03-10T16:05:21.734Z,1.20
2023-03-10T16:07:49.499Z,1.00
2023-03-10T16:10:20.556Z,0.90
2023-03-10T16:12:48.111Z,1.40
2023-03-10T16:15:18.225Z,1.20
2023-03-10T16:17:46.039Z,1.50
2023-03-10T16:20:14.029Z,1.60
2023-03-10T16:22:43.043Z,1.40
2023-03-10T16:25:16.109Z,1.50
2023-03-10T16:27:45.710Z,1.40
2023-03-10T16:30:17.015Z,1.40
2023-03-10T16:35:18.079Z,1.50
2023-03-10T16:37:45.626Z,1.40
2023-03-10T16:40:13.555Z,2.50
2023-03-10T16:42:45.527Z,1.60
2023-03-10T16:45:13.595Z,1.70
2023-03-10T16:47:44.192Z,1.50
2023-03-10T16:50:14.151Z,1.90
2023-03-10T16:52:42.831Z,1.70
2023-03-10T16:55:18.867Z,2.00
2023-03-10T16:57:46.537Z,1.60
2023-03-10T17:00:15.432Z,1.90
2023-03-10T17:02:42.928Z,2.00
2023-03-10T17:05:10.415Z,2.10
2023-03-10T17:07:46.361Z,2.10
2023-03-10T17:10:17.276Z,2.10
2023-03-10T17:12:44.694Z,2.10
2023-03-10T17:15:12.760Z,1.70
2023-03-10T17:17:40.130Z,1.70
2023-03-10T17:20:08.559Z,1.70
2023-03-10T17:22:37.941Z,2.00
2023-03-10T17:25:07.262Z,2.50
2023-03-10T17:27:34.671Z,2.40
2023-03-10T17:30:02.222Z,2.50
2023-03-10T17:32:30.825Z,2.80
2023-03-10T17:34:58.611Z,2.50
2023-03-10T17:37:25.964Z,2.40
2023-03-10T17:39:54.564Z,1.90
2023-03-10T17:42:22.676Z,1.90
2023-03-10T17:44:50.184Z,2.10
2023-03-10T17:47:17.736Z,1.80
2023-03-10T17:49:45.582Z,2.30
2023-03-10T17:52:13.270Z,1.70
2023-03-10T17:54:41.097Z,1.90
2023-03-10T17:57:08.745Z,2.10
2023-03-10T17:59:39.317Z,1.60
2023-03-10T18:02:06.804Z,1.50
2023-03-10T18:04:36.466Z,2.20
2023-03-10T18:07:03.828Z,2.20
2023-03-10T18:09:31.496Z,1.70
2023-03-10T18:11:58.918Z,1.70
2023-03-10T18:14:26.667Z,2.30
2023-03-10T18:16:54.049Z,2.80
2023-03-10T18:19:21.723Z,2.20
2023-03-10T18:21:49.728Z,2.10
2023-03-10T18:24:17.501Z,2.00
2023-03-10T18:26:45.752Z,2.20
2023-03-10T18:29:14.440Z,2.50
2023-03-10T18:31:42.131Z,3.20
2023-03-10T18:34:10.370Z,2.20
2023-03-10T18:36:38.046Z,2.30
2023-03-10T18:39:07.802Z,2.10
2023-03-10T18:41:35.925Z,2.50
2023-03-10T18:44:04.786Z,2.50
2023-03-10T18:46:32.220Z,2.30
2023-03-10T18:48:59.690Z,1.90
2023-03-10T18:51:28.494Z,2.00
2023-03-10T18:53:56.657Z,2.70
2023-03-10T18:56:26.057Z,2.20
2023-03-10T18:58:53.762Z,2.40
2023-03-10T19:01:21.569Z,3.20
2023-03-10T19:03:49.095Z,2.90
2023-03-10T19:06:16.475Z,2.80
2023-03-10T19:08:44.090Z,2.20
2023-03-10T19:11:11.994Z,2.20
2023-03-10T19:13:40.645Z,2.70
2023-03-10T19:16:10.374Z,2.60
2023-03-10T19:18:38.447Z,3.10
2023-03-10T19:21:06.795Z,2.90
2023-03-10T19:23:35.053Z,2.90
2023-03-10T19:26:03.171Z,2.70
2023-03-10T19:28:31.487Z,2.90
2023-03-10T19:30:59.491Z,2.50
2023-03-10T19:33:27.269Z,3.50
2023-03-10T19:36:06.944Z,3.40
2023-03-10T19:38:36.660Z,3.70
2023-03-10T19:41:06.231Z,3.60
2023-03-10T19:43:33.561Z,3.60
2023-03-10T19:46:03.092Z,4.10
2023-03-10T19:48:30.747Z,4.70
2023-03-10T19:51:00.352Z,4.70
2023-03-10T19:53:30.012Z,3.90
2023-03-10T19:56:01.052Z,4.00
2023-03-10T19:58:28.691Z,3.70
2023-03-10T20:00:58.261Z,4.10
2023-03-10T20:03:28.921Z,4.60
2023-03-10T20:05:57.026Z,3.50
2023-03-10T20:08:24.794Z,3.10
2023-03-10T20:10:52.314Z,3.60
2023-03-10T20:13:19.813Z,3.40
2023-03-10T20:15:47.210Z,3.50
2023-03-10T20:18:18.398Z,3.10
2023-03-10T20:20:45.773Z,3.60
2023-03-10T20:23:15.020Z,4.50
2023-03-10T20:25:42.755Z,4.40
2023-03-10T20:28:11.152Z,4.00
2023-03-10T20:30:39.939Z,4.40
2023-03-10T20:33:08.297Z,3.70
2023-03-10T20:35:38.210Z,4.30
2023-03-10T20:38:05.778Z,4.00
2023-03-10T20:40:33.207Z,4.60
2023-03-10T20:43:00.594Z,5.40
2023-03-10T20:45:28.196Z,4.60
2023-03-10T20:47:56.212Z,6.50
2023-03-10T20:50:24.388Z,6.70
2023-03-10T20:52:53.016Z,5.10
2023-03-10T20:55:27.058Z,4.50
2023-03-10T20:57:56.992Z,3.60
2023-03-10T21:00:27.708Z,4.30
2023-03-10T21:02:57.343Z,4.40
2023-03-10T21:05:27.128Z,3.90
2023-03-10T21:07:55.101Z,3.80
2023-03-10T21:10:23.361Z,4.90
2023-03-10T21:12:50.922Z,4.60
2023-03-10T21:15:19.603Z,3.90
2023-03-10T21:17:47.574Z,3.90
2023-03-10T21:20:20.533Z,4.10
2023-03-10T21:22:48.409Z,4.20
2023-03-10T21:25:21.902Z,4.40
2023-03-10T21:27:53.240Z,4.40
2023-03-10T21:30:23.547Z,4.50
2023-03-10T21:32:51.092Z,4.50
2023-03-10T21:35:18.640Z,4.10
2023-03-10T21:37:49.495Z,4.60
2023-03-10T21:40:20.321Z,5.50
2023-03-10T21:42:49.283Z,5.40
2023-03-10T21:45:20.829Z,5.50
2023-03-10T21:47:48.589Z,5.20
2023-03-10T21:50:16.612Z,4.30
2023-03-10T21:52:44.995Z,3.90
2023-03-10T21:55:21.440Z,4.40
2023-03-10T21:57:49.660Z,4.00
2023-03-10T22:00:20.089Z,4.50
2023-03-10T22:02:47.746Z,3.50
2023-03-10T22:05:17.442Z,3.30
2023-03-10T22:07:45.242Z,3.30
2023-03-10T22:10:14.114Z,3.30
2023-03-10T22:12:41.852Z,2.80
2023-03-10T22:15:18.674Z,3.30
2023-03-10T22:17:46.526Z,3.10
2023-03-10T22:20:24.010Z,3.40
2023-03-10T22:22:52.284Z,3.20
2023-03-10T22:25:20.426Z,3.90
2023-03-10T22:27:54.898Z,3.90
2023-03-10T22:30:25.479Z,3.90
2023-03-10T22:32:54.131Z,4.10
2023-03-10T22:35:22.431Z,4.00
2023-03-10T22:37:51.501Z,3.80
2023-03-10T22:40:23.064Z,4.20
2023-03-10T22:42:50.484Z,3.90
2023-03-10T22:45:24.137Z,4.30
2023-03-10T22:47:58.865Z,3.40
2023-03-10T22:50:46.746Z,3.80
2023-03-10T22:53:17.723Z,3.90
2023-03-10T22:55:46.547Z,3.90
2023-03-10T22:58:16.301Z,3.90
2023-03-10T23:00:44.704Z,3.70
2023-03-10T23:03:13.906Z,3.60
2023-03-10T23:05:41.718Z,3.70
2023-03-10T23:08:09.137Z,3.70
2023-03-10T23:10:38.155Z,3.80
2023-03-10T23:13:10.629Z,4.40
2023-03-10T23:15:38.547Z,5.00
2023-03-10T23:18:07.488Z,5.00
2023-03-10T23:20:43.708Z,4.60
2023-03-10T23:23:14.723Z,4.90
2023-03-10T23:25:47.198Z,4.30
2023-03-10T23:28:16.291Z,4.80
2023-03-10T23:30:46.873Z,3.90
2023-03-10T23:33:18.473Z,4.30
2023-03-10T23:35:50.304Z,5.20
2023-03-10T23:38:17.839Z,4.80
2023-03-10T23:40:45.298Z,6.10
2023-03-10T23:43:13.480Z,5.80
2023-03-10T23:45:41.262Z,6.40
2023-03-10T23:48:16.090Z,5.50
2023-03-10T23:50:46.064Z,5.70
2023-03-10T23:53:16.338Z,5.50
2023-03-10T23:55:46.847Z,5.40
2023-03-10T23:58:16.710Z,5.90
